This is the latest recevied weather packets stored in our database for station/object MM9SQL. If no packets are shown the sender has not sent any weather packets the latest 10 day(s).
| Time | Temp. | Humidity | Pressure | Rain* | Wind** | Luminosity | Snow |
|---|---|---|---|---|---|---|---|
| 1778064903 | 11.11° C | 46% | 1015.3 hPa | 0 mm | - | - | - |
| 1778061907 | 9.44° C | 56% | 1015.5 hPa | 0 mm | - | - | - |
| 1778061618 | 9.44° C | 59% | 1015.6 hPa | 0 mm | - | - | - |
| 1778059504 | 7.78° C | 60% | 1016 hPa | 0 mm | - | - | - |
| 1778058914 | 8.33° C | 60% | 1016 hPa | 0 mm | - | - | - |
| 1778058307 | 7.78° C | 63% | 1016.2 hPa | 0 mm | - | - | - |
| 1778056504 | 7.22° C | 63% | 1016.4 hPa | 0 mm | - | - | - |
| 1778052623 | 6.11° C | 69% | 1016.6 hPa | 0 mm | - | - | - |
| 1778050207 | 5° C | 80% | 1016.6 hPa | 0 mm | - | - | - |
| 1778048714 | 2.78° C | 85% | 1016.6 hPa | 0 mm | - | - | - |
| 1778047510 | 2.22° C | 89% | 1016.5 hPa | 0 mm | - | - | - |
| 1778046313 | 0.56° C | 92% | 1016.5 hPa | 0 mm | - | - | - |
| 1778046006 | 0.56° C | 91% | 1016.6 hPa | 0 mm | - | - | - |
| 1778045403 | 0° C | 91% | 1016.7 hPa | 0 mm | - | - | - |
| 1778045104 | 0° C | 92% | 1016.7 hPa | 0 mm | - | - | - |
| 1778044504 | 0° C | 91% | 1016.8 hPa | 0 mm | - | - | - |
| 1778043003 | -0.56° C | 92% | 1017 hPa | 0 mm | - | - | - |
| 1778030118 | -0.56° C | 89% | 1017.4 hPa | 0 mm | - | - | - |
| 1778026207 | 0° C | 88% | 1017.9 hPa | 0 mm | - | - | - |
| 1778017203 | 2.78° C | 83% | 1018.5 hPa | 0 mm | - | - | - |
| 1778015103 | 3.89° C | 79% | 1018.4 hPa | 0 mm | - | - | - |
| 1778013906 | 4.44° C | 77% | 1018.5 hPa | 0 mm | - | - | - |
| 1778011803 | 5.56° C | 71% | 1018.4 hPa | 0 mm | - | - | - |
| 1778010305 | 6.11° C | 69% | 1018.5 hPa | 0 mm | - | - | - |
| 1778008208 | 6.67° C | 65% | 1018.2 hPa | 0 mm | - | - | - |
* Rain latest hour (hover to see other rain measurements)
** Current wind speed in m/s (hover to see current wind gust speed)